createdAt,value
2023-02-23T00:01:16.278Z,43.80
2023-02-23T00:03:44.698Z,43.35
2023-02-23T00:06:13.688Z,43.45
2023-02-23T00:08:41.808Z,46.47
2023-02-23T00:11:11.676Z,42.42
2023-02-23T00:13:40.152Z,42.72
2023-02-23T00:16:09.321Z,41.63
2023-02-23T00:18:45.639Z,43.75
2023-02-23T00:21:16.521Z,41.20
2023-02-23T00:23:45.558Z,42.97
2023-02-23T00:26:14.413Z,39.42
2023-02-23T00:28:44.763Z,40.03
2023-02-23T00:31:13.458Z,38.92
2023-02-23T00:33:43.183Z,41.08
2023-02-23T00:36:12.512Z,36.88
2023-02-23T00:38:40.777Z,37.88
2023-02-23T00:41:11.024Z,37.97
2023-02-23T00:43:47.606Z,36.80
2023-02-23T00:46:17.630Z,37.72
2023-02-23T00:48:47.479Z,37.78
2023-02-23T00:51:15.827Z,36.55
2023-02-23T00:53:44.265Z,36.53
2023-02-23T00:56:13.765Z,36.40
2023-02-23T00:58:42.421Z,35.65
2023-02-23T01:01:11.956Z,34.03
2023-02-23T01:03:41.608Z,35.70
2023-02-23T01:06:14.918Z,36.58
2023-02-23T01:08:44.296Z,34.20
2023-02-23T01:11:13.125Z,34.00
2023-02-23T01:13:44.687Z,33.50
2023-02-23T01:16:16.098Z,34.25
2023-02-23T01:18:44.795Z,33.88
2023-02-23T01:21:17.983Z,32.47
2023-02-23T01:23:46.386Z,35.70
2023-02-23T01:26:19.198Z,31.70
2023-02-23T01:28:50.415Z,32.15
2023-02-23T01:31:19.714Z,32.00
2023-02-23T01:33:47.984Z,32.45
2023-02-23T01:36:18.737Z,32.13
2023-02-23T01:38:46.929Z,29.98
2023-02-23T01:41:15.470Z,31.75
2023-02-23T01:44:00.742Z,29.45
2023-02-23T01:46:30.245Z,33.33
2023-02-23T01:48:58.628Z,30.88
2023-02-23T01:51:29.121Z,30.63
2023-02-23T01:54:01.229Z,29.88
2023-02-23T01:56:31.018Z,30.60
2023-02-23T01:58:59.548Z,30.75
2023-02-23T02:01:29.792Z,30.58
2023-02-23T02:03:59.345Z,28.38
2023-02-23T02:06:30.054Z,26.70
2023-02-23T02:09:00.838Z,27.80
2023-02-23T02:11:36.358Z,28.40
2023-02-23T02:14:09.184Z,28.42
2023-02-23T02:16:48.021Z,26.98
2023-02-23T02:19:54.577Z,27.15
2023-02-23T02:22:48.342Z,27.67
2023-02-23T02:25:43.321Z,26.90
2023-02-23T02:28:32.947Z,25.38
2023-02-23T02:31:28.229Z,26.10
2023-02-23T02:34:03.351Z,25.08
2023-02-23T02:37:13.165Z,26.08
2023-02-23T02:39:46.813Z,24.95
2023-02-23T02:42:20.609Z,25.67
2023-02-23T02:44:52.332Z,25.15
2023-02-23T02:47:24.120Z,24.83
2023-02-23T02:49:53.598Z,25.05
2023-02-23T02:52:25.829Z,24.40
2023-02-23T02:54:54.933Z,23.83
2023-02-23T02:57:25.743Z,24.48
2023-02-23T03:00:11.411Z,24.92
2023-02-23T03:02:58.980Z,23.58
2023-02-23T03:05:46.417Z,23.30
2023-02-23T03:08:37.633Z,22.65
2023-02-23T03:11:24.493Z,23.02
2023-02-23T03:14:20.556Z,22.55
2023-02-23T03:17:10.060Z,24.23
2023-02-23T03:19:57.495Z,22.63
2023-02-23T03:22:46.671Z,23.38
2023-02-23T03:25:35.436Z,21.42
2023-02-23T03:28:28.601Z,22.42
2023-02-23T03:31:21.523Z,19.98
2023-02-23T03:34:13.392Z,22.40
2023-02-23T03:37:02.476Z,20.50
2023-02-23T03:39:51.880Z,21.45
2023-02-23T03:42:39.734Z,20.48
2023-02-23T03:45:27.270Z,18.95
2023-02-23T03:48:13.156Z,21.50
2023-02-23T03:51:01.057Z,20.33
2023-02-23T03:53:48.635Z,20.23
2023-02-23T03:56:34.522Z,20.50
2023-02-23T03:59:21.996Z,19.15
2023-02-23T04:02:07.717Z,20.25
2023-02-23T04:04:53.608Z,19.00
2023-02-23T04:07:39.018Z,19.20
2023-02-23T04:10:26.495Z,19.77
2023-02-23T04:13:14.944Z,18.13
2023-02-23T04:15:46.408Z,19.30
2023-02-23T04:18:15.790Z,18.15
2023-02-23T04:20:44.030Z,18.55
2023-02-23T04:23:12.603Z,17.58
2023-02-23T04:25:40.825Z,17.17
2023-02-23T04:28:09.660Z,16.92
2023-02-23T04:30:38.356Z,17.55
2023-02-23T04:33:08.035Z,18.00
2023-02-23T04:35:36.398Z,17.13
2023-02-23T04:38:04.956Z,17.95
2023-02-23T04:40:33.343Z,18.23
2023-02-23T04:43:01.687Z,18.95
2023-02-23T04:45:29.865Z,18.95
2023-02-23T04:47:57.914Z,16.67
2023-02-23T04:50:27.423Z,17.67
2023-02-23T04:52:55.443Z,16.33
2023-02-23T04:55:24.656Z,15.98
2023-02-23T04:57:53.037Z,16.90
2023-02-23T05:00:21.419Z,16.65
2023-02-23T05:02:50.676Z,16.30
2023-02-23T05:05:19.048Z,16.15
2023-02-23T05:07:48.534Z,16.20
2023-02-23T05:10:16.837Z,15.68
2023-02-23T05:12:44.919Z,15.73
2023-02-23T05:15:13.145Z,16.38
2023-02-23T05:17:42.390Z,15.38
2023-02-23T05:20:11.830Z,15.43
2023-02-23T05:22:39.991Z,16.05
2023-02-23T05:25:12.023Z,16.50
2023-02-23T05:27:40.299Z,16.13
2023-02-23T05:30:10.055Z,15.00
2023-02-23T05:32:38.195Z,14.15
2023-02-23T05:35:07.131Z,14.07
2023-02-23T05:37:35.220Z,22.63
2023-02-23T05:40:03.403Z,15.50
2023-02-23T05:42:32.856Z,15.20
2023-02-23T05:45:01.020Z,13.75
2023-02-23T05:47:29.116Z,13.27
2023-02-23T05:49:57.145Z,18.98
2023-02-23T05:52:25.724Z,16.38
2023-02-23T05:54:53.825Z,15.40
2023-02-23T05:57:22.116Z,13.65
2023-02-23T05:59:51.562Z,15.20
2023-02-23T06:02:19.717Z,14.15
2023-02-23T06:04:47.797Z,14.80
2023-02-23T06:07:15.956Z,16.33
2023-02-23T06:09:44.677Z,14.00
2023-02-23T06:12:12.817Z,13.75
2023-02-23T06:14:40.892Z,14.40
2023-02-23T06:17:10.389Z,18.95
2023-02-23T06:19:38.596Z,20.88
2023-02-23T06:22:06.673Z,20.23
2023-02-23T06:24:35.132Z,20.00
2023-02-23T06:27:03.251Z,28.15
2023-02-23T06:29:31.341Z,25.88
2023-02-23T06:32:01.129Z,39.08
2023-02-23T06:34:30.947Z,24.02
2023-02-23T06:37:00.650Z,25.30
2023-02-23T06:39:28.703Z,25.63
2023-02-23T06:41:56.829Z,36.42
2023-02-23T06:44:25.168Z,41.95
2023-02-23T06:46:53.563Z,39.42
2023-02-23T06:49:21.732Z,39.75
2023-02-23T06:51:51.188Z,49.70
2023-02-23T06:54:19.275Z,57.65
2023-02-23T06:56:47.423Z,60.50
2023-02-23T06:59:15.629Z,67.20
2023-02-23T07:01:44.854Z,57.90
2023-02-23T07:04:14.913Z,67.03
2023-02-23T07:06:44.768Z,66.57
2023-02-23T07:09:15.533Z,61.85
2023-02-23T07:11:44.881Z,64.30
2023-02-23T07:14:21.541Z,67.90
2023-02-23T07:16:54.405Z,68.78
2023-02-23T07:19:23.409Z,65.32
2023-02-23T07:21:51.566Z,60.53
2023-02-23T07:24:21.998Z,60.55
2023-02-23T07:26:50.172Z,69.18
2023-02-23T07:29:18.208Z,63.42
2023-02-23T07:31:46.424Z,60.10
2023-02-23T07:34:14.582Z,63.28
2023-02-23T07:36:42.631Z,66.53
2023-02-23T07:39:10.664Z,60.13
2023-02-23T07:41:40.156Z,59.72
2023-02-23T07:44:17.436Z,62.75
2023-02-23T07:46:46.516Z,64.20
2023-02-23T07:49:15.040Z,64.32
2023-02-23T07:51:43.184Z,61.00
2023-02-23T07:54:11.263Z,59.58
2023-02-23T07:56:40.791Z,57.22
2023-02-23T07:59:08.918Z,56.63
2023-02-23T08:01:37.115Z,58.97
2023-02-23T08:04:05.668Z,58.42
2023-02-23T08:06:33.849Z,58.22
2023-02-23T08:09:02.489Z,68.50
2023-02-23T08:11:30.529Z,58.05
2023-02-23T08:14:01.127Z,60.22
2023-02-23T08:16:29.409Z,57.63
2023-02-23T08:18:58.331Z,56.83
2023-02-23T08:21:26.574Z,57.53
2023-02-23T08:23:55.541Z,55.47
2023-02-23T08:26:24.319Z,56.42
2023-02-23T08:28:52.624Z,58.47
2023-02-23T08:31:24.348Z,55.70
2023-02-23T08:33:52.995Z,54.50
2023-02-23T08:36:21.368Z,59.10
2023-02-23T08:38:49.638Z,53.47
2023-02-23T08:41:18.003Z,57.92
2023-02-23T08:43:46.343Z,54.83
2023-02-23T08:46:14.534Z,53.15
2023-02-23T08:48:44.152Z,53.92
2023-02-23T08:51:12.348Z,52.97
2023-02-23T08:53:40.430Z,52.88
2023-02-23T08:56:09.295Z,52.15
2023-02-23T08:58:37.618Z,49.85
2023-02-23T09:01:06.135Z,51.05
2023-02-23T09:03:38.233Z,50.53
2023-02-23T09:06:10.078Z,49.53
2023-02-23T09:08:39.250Z,56.83
2023-02-23T09:11:07.314Z,63.97
2023-02-23T09:13:36.176Z,51.47
2023-02-23T09:16:05.009Z,56.38
2023-02-23T09:18:33.195Z,59.58
2023-02-23T09:21:06.959Z,59.33
2023-02-23T09:23:36.762Z,61.30
2023-02-23T09:26:05.140Z,57.15
2023-02-23T09:28:33.992Z,67.85
2023-02-23T09:31:07.046Z,64.80
2023-02-23T09:33:35.261Z,66.00
2023-02-23T09:36:06.168Z,66.00
2023-02-23T09:38:34.278Z,73.45
2023-02-23T09:41:03.712Z,70.25
2023-02-23T09:43:33.533Z,78.50
2023-02-23T09:46:06.042Z,113.90
2023-02-23T09:48:34.272Z,73.22
2023-02-23T09:51:02.360Z,72.05
2023-02-23T09:53:36.457Z,71.30
2023-02-23T09:56:10.665Z,79.13
2023-02-23T09:58:38.786Z,78.68
2023-02-23T10:01:24.732Z,75.75
2023-02-23T10:03:55.556Z,70.35
2023-02-23T10:06:23.736Z,74.20
2023-02-23T10:08:58.144Z,72.03
2023-02-23T10:11:29.471Z,75.43
2023-02-23T10:14:03.188Z,77.30
2023-02-23T10:16:36.590Z,68.80
2023-02-23T10:19:07.139Z,69.65
2023-02-23T10:21:37.073Z,72.57
2023-02-23T10:24:06.538Z,71.18
2023-02-23T10:26:40.224Z,76.13
2023-02-23T10:29:11.497Z,74.78
2023-02-23T10:31:42.647Z,79.05
2023-02-23T10:34:14.157Z,77.97
2023-02-23T10:36:44.319Z,77.25
2023-02-23T10:39:12.952Z,75.10
2023-02-23T10:41:42.493Z,72.55
2023-02-23T10:44:17.347Z,80.93
2023-02-23T10:46:45.693Z,70.15
2023-02-23T10:49:16.646Z,67.35
2023-02-23T10:51:44.741Z,70.07
2023-02-23T10:54:38.885Z,59.00
2023-02-23T10:57:08.865Z,55.20
2023-02-23T10:59:36.924Z,47.33
2023-02-23T11:02:23.332Z,46.17
2023-02-23T11:04:53.139Z,46.50
2023-02-23T11:07:24.235Z,52.33
2023-02-23T11:09:52.889Z,44.70
2023-02-23T11:12:24.215Z,45.15
2023-02-23T11:14:53.052Z,44.10
2023-02-23T11:17:27.741Z,43.63
2023-02-23T11:19:59.895Z,42.28
2023-02-23T11:22:28.072Z,45.15
2023-02-23T11:24:56.245Z,45.67
2023-02-23T11:27:27.260Z,48.20
2023-02-23T11:29:56.877Z,44.33
2023-02-23T11:32:28.939Z,46.92
2023-02-23T11:35:13.703Z,44.13
2023-02-23T11:37:41.876Z,43.83
2023-02-23T11:40:20.229Z,49.38
2023-02-23T11:42:54.697Z,44.38
2023-02-23T11:45:23.623Z,49.67
2023-02-23T11:47:52.652Z,51.05
2023-02-23T11:50:25.527Z,47.45
2023-02-23T11:52:56.772Z,50.83
2023-02-23T11:55:25.565Z,49.72
2023-02-23T11:57:56.898Z,54.13
2023-02-23T12:00:27.428Z,50.63
2023-02-23T12:02:58.619Z,48.28
2023-02-23T12:05:27.648Z,49.28
2023-02-23T12:07:59.771Z,46.53
2023-02-23T12:10:29.187Z,50.40
2023-02-23T12:13:04.596Z,49.80
2023-02-23T12:15:37.501Z,48.03
2023-02-23T12:18:08.434Z,46.35
2023-02-23T12:20:39.178Z,49.05
2023-02-23T12:23:09.175Z,49.28
2023-02-23T12:25:40.632Z,47.92
2023-02-23T12:28:19.247Z,53.42
2023-02-23T12:30:49.748Z,54.17
2023-02-23T12:33:20.207Z,52.17
2023-02-23T12:35:51.760Z,51.03
2023-02-23T12:38:27.921Z,52.65
2023-02-23T12:40:59.959Z,52.42
2023-02-23T12:43:33.609Z,54.40
2023-02-23T12:46:08.513Z,54.00
2023-02-23T12:48:39.737Z,51.90
2023-02-23T12:51:12.644Z,53.03
2023-02-23T12:53:42.113Z,53.75
2023-02-23T12:56:20.862Z,58.38
2023-02-23T12:58:52.110Z,58.75
2023-02-23T13:01:22.710Z,57.17
2023-02-23T13:04:01.143Z,59.95
2023-02-23T13:06:36.897Z,65.35
2023-02-23T13:09:11.395Z,64.47
2023-02-23T13:11:53.883Z,68.65
2023-02-23T13:14:26.666Z,65.80
2023-02-23T13:16:56.586Z,62.70
2023-02-23T13:19:26.472Z,62.60
2023-02-23T13:21:56.292Z,64.55
2023-02-23T13:24:26.106Z,68.57
2023-02-23T13:26:56.830Z,67.72
2023-02-23T13:29:31.879Z,72.82
2023-02-23T13:34:50.034Z,73.20
2023-02-23T13:37:20.664Z,65.88
2023-02-23T13:39:54.203Z,65.68
2023-02-23T13:42:28.241Z,61.40
2023-02-23T13:45:02.236Z,62.25
2023-02-23T13:47:35.982Z,63.42
2023-02-23T13:50:06.405Z,66.30
2023-02-23T13:52:39.754Z,63.38
2023-02-23T13:55:49.926Z,73.10
2023-02-23T13:58:19.488Z,70.82
2023-02-23T14:00:56.465Z,63.00
2023-02-23T14:03:25.662Z,62.60
2023-02-23T14:05:56.662Z,63.22
2023-02-23T14:08:32.444Z,68.35
2023-02-23T14:11:00.601Z,63.15
2023-02-23T14:13:31.025Z,62.13
2023-02-23T14:16:18.453Z,62.45
2023-02-23T14:19:08.237Z,64.93
2023-02-23T14:21:38.251Z,66.03
2023-02-23T14:24:20.075Z,63.75
2023-02-23T14:27:40.440Z,63.63
2023-02-23T14:30:25.411Z,69.55
2023-02-23T14:32:54.968Z,67.68
2023-02-23T14:35:45.146Z,63.05
2023-02-23T14:38:18.398Z,63.35
2023-02-23T14:40:49.011Z,63.97
2023-02-23T14:43:48.225Z,63.30
2023-02-23T14:46:20.288Z,67.22
2023-02-23T14:48:59.801Z,64.32
2023-02-23T14:51:42.529Z,67.28
2023-02-23T14:54:16.361Z,62.03
2023-02-23T14:56:48.020Z,62.70
2023-02-23T14:59:20.995Z,65.25
2023-02-23T15:01:49.265Z,62.25
2023-02-23T15:04:20.887Z,59.17
2023-02-23T15:06:49.103Z,58.65
2023-02-23T15:09:19.327Z,58.17
2023-02-23T15:11:49.992Z,62.92
2023-02-23T15:14:27.302Z,57.83
2023-02-23T15:16:57.027Z,59.03
2023-02-23T15:19:26.486Z,58.22
2023-02-23T15:21:55.258Z,56.47
2023-02-23T15:24:25.855Z,57.17
2023-02-23T15:26:53.998Z,55.80
2023-02-23T15:29:22.890Z,57.67
2023-02-23T15:31:52.852Z,53.35
2023-02-23T15:34:21.979Z,50.58
2023-02-23T15:36:53.504Z,52.38
2023-02-23T15:39:34.386Z,56.55
2023-02-23T15:42:02.972Z,61.08
2023-02-23T15:44:43.607Z,64.10
2023-02-23T15:47:17.919Z,59.30
2023-02-23T15:49:46.124Z,60.85
2023-02-23T15:52:18.619Z,61.65
2023-02-23T15:54:48.982Z,64.85
2023-02-23T15:57:20.543Z,62.42
2023-02-23T15:59:49.129Z,71.38
2023-02-23T16:02:19.411Z,72.47
2023-02-23T16:04:49.943Z,67.05
2023-02-23T16:07:20.616Z,62.67
2023-02-23T16:09:53.122Z,68.07
2023-02-23T16:12:23.007Z,67.93
2023-02-23T16:14:54.016Z,70.45
2023-02-23T16:17:27.093Z,65.93
2023-02-23T16:19:56.603Z,72.82
2023-02-23T16:22:27.691Z,67.90
2023-02-23T16:25:00.879Z,73.38
2023-02-23T16:27:29.739Z,65.82
2023-02-23T16:30:00.526Z,69.63
2023-02-23T16:32:34.983Z,70.72
2023-02-23T16:35:03.966Z,75.35
2023-02-23T16:37:33.456Z,73.32
2023-02-23T16:40:01.923Z,70.72
2023-02-23T16:42:31.650Z,70.88
2023-02-23T16:45:00.255Z,64.00
2023-02-23T16:47:36.578Z,71.75
2023-02-23T16:50:20.147Z,69.25
2023-02-23T16:52:53.626Z,65.80
2023-02-23T16:55:26.163Z,66.32
2023-02-23T16:57:55.771Z,66.78
2023-02-23T17:00:26.559Z,71.40
2023-02-23T17:02:55.770Z,71.43
2023-02-23T17:05:24.716Z,70.68
2023-02-23T17:07:54.373Z,68.15
2023-02-23T17:10:26.976Z,69.40
2023-02-23T17:12:55.708Z,66.10
2023-02-23T17:15:24.956Z,69.35
2023-02-23T17:17:56.213Z,67.35
2023-02-23T17:20:26.143Z,66.47
2023-02-23T17:22:56.016Z,63.75
2023-02-23T17:25:26.697Z,65.05
2023-02-23T17:27:54.846Z,63.70
2023-02-23T17:30:23.698Z,63.97
2023-02-23T17:32:52.310Z,64.35
2023-02-23T17:35:20.646Z,62.72
2023-02-23T17:37:48.786Z,61.78
2023-02-23T17:40:26.144Z,61.95
2023-02-23T17:42:54.335Z,58.90
2023-02-23T17:45:22.676Z,62.53
2023-02-23T17:47:50.897Z,63.00
2023-02-23T17:50:20.038Z,67.00
2023-02-23T17:52:48.251Z,68.95
2023-02-23T17:55:16.353Z,68.88
2023-02-23T17:57:46.105Z,66.25
2023-02-23T18:00:15.471Z,69.57
2023-02-23T18:02:44.429Z,69.65
2023-02-23T18:05:13.488Z,66.88
2023-02-23T18:07:41.605Z,70.05
2023-02-23T18:10:11.103Z,67.78
2023-02-23T18:12:39.363Z,70.10
2023-02-23T18:15:09.554Z,63.65
2023-02-23T18:17:37.691Z,67.40
2023-02-23T18:20:07.136Z,67.00
2023-02-23T18:22:35.297Z,65.30
2023-02-23T18:25:03.415Z,68.32
2023-02-23T18:27:31.524Z,64.85
2023-02-23T18:29:59.605Z,63.83
2023-02-23T18:32:29.349Z,72.05
2023-02-23T18:34:57.572Z,65.57
2023-02-23T18:37:28.853Z,66.82
2023-02-23T18:39:59.353Z,66.50
2023-02-23T18:42:27.670Z,69.20
2023-02-23T18:44:55.765Z,66.97
2023-02-23T18:47:24.376Z,68.50
2023-02-23T18:49:53.863Z,63.05
2023-02-23T18:52:21.953Z,69.22
2023-02-23T18:54:50.206Z,65.55
2023-02-23T18:57:18.349Z,61.80
2023-02-23T18:59:47.676Z,65.10
2023-02-23T19:02:15.728Z,70.15
2023-02-23T19:04:43.866Z,61.47
2023-02-23T19:07:13.337Z,57.83
2023-02-23T19:09:41.449Z,62.28
2023-02-23T19:12:11.448Z,60.00
2023-02-23T19:14:49.211Z,57.92
2023-02-23T19:17:17.708Z,62.75
2023-02-23T19:19:45.893Z,61.20
2023-02-23T19:22:15.427Z,59.72
2023-02-23T19:24:43.490Z,60.58
2023-02-23T19:27:11.629Z,62.10
2023-02-23T19:29:39.947Z,65.88
2023-02-23T19:32:08.824Z,67.47
2023-02-23T19:34:37.105Z,66.97
2023-02-23T19:37:05.275Z,62.72
2023-02-23T19:39:35.298Z,63.70
2023-02-23T19:42:03.397Z,62.75
2023-02-23T19:44:31.540Z,68.28
2023-02-23T19:46:59.620Z,60.38
2023-02-23T19:49:27.750Z,62.28
2023-02-23T19:51:57.899Z,61.92
2023-02-23T19:54:28.749Z,62.85
2023-02-23T19:56:58.280Z,64.78
2023-02-23T19:59:28.671Z,60.30
2023-02-23T20:01:56.898Z,64.68
2023-02-23T20:04:25.030Z,60.08
2023-02-23T20:06:53.207Z,63.45
2023-02-23T20:09:21.419Z,66.72
2023-02-23T20:11:49.562Z,59.22
2023-02-23T20:14:18.965Z,64.25
2023-02-23T20:16:47.083Z,64.18
2023-02-23T20:19:15.220Z,61.33
2023-02-23T20:21:43.627Z,64.75
2023-02-23T20:24:12.827Z,61.33
2023-02-23T20:26:40.987Z,62.58
2023-02-23T20:29:11.714Z,60.80
2023-02-23T20:31:44.939Z,62.33
2023-02-23T20:34:13.412Z,63.85
2023-02-23T20:36:41.625Z,59.05
2023-02-23T20:39:10.682Z,60.70
2023-02-23T20:41:43.466Z,60.13
2023-02-23T20:44:11.836Z,64.00
2023-02-23T20:46:41.348Z,61.30
2023-02-23T20:49:11.090Z,66.35
2023-02-23T20:51:39.822Z,62.38
2023-02-23T20:54:08.341Z,60.47
2023-02-23T20:56:36.422Z,64.57
2023-02-23T20:59:04.633Z,60.78
2023-02-23T21:01:32.871Z,61.22
2023-02-23T21:04:02.498Z,60.67
2023-02-23T21:06:31.160Z,78.70
2023-02-23T21:09:04.608Z,73.53
2023-02-23T21:11:32.999Z,67.15
2023-02-23T21:14:01.080Z,73.30
2023-02-23T21:16:32.457Z,70.80
2023-02-23T21:19:05.552Z,71.20
2023-02-23T21:21:34.085Z,67.45
2023-02-23T21:24:02.221Z,75.38
2023-02-23T21:26:30.583Z,76.50
2023-02-23T21:28:58.849Z,77.20
2023-02-23T21:31:27.003Z,69.15
2023-02-23T21:33:55.420Z,72.00
2023-02-23T21:36:24.921Z,75.95
2023-02-23T21:38:53.109Z,79.85
2023-02-23T21:41:21.492Z,77.43
2023-02-23T21:43:53.521Z,77.93
2023-02-23T21:46:23.213Z,75.45
2023-02-23T21:48:51.297Z,74.95
2023-02-23T21:51:20.015Z,78.13
2023-02-23T21:53:49.658Z,79.70
2023-02-23T21:56:18.885Z,80.47
2023-02-23T21:58:48.446Z,81.90
2023-02-23T22:01:17.272Z,77.68
2023-02-23T22:03:47.762Z,77.05
2023-02-23T22:06:16.048Z,81.55
2023-02-23T22:08:44.913Z,75.55
2023-02-23T22:11:17.322Z,79.80
2023-02-23T22:13:45.851Z,75.43
2023-02-23T22:16:14.625Z,80.97
2023-02-23T22:18:42.795Z,78.00
2023-02-23T22:21:11.726Z,79.30
2023-02-23T22:23:40.102Z,77.00
2023-02-23T22:26:09.084Z,78.72
2023-02-23T22:28:38.705Z,74.78
2023-02-23T22:31:08.012Z,79.88
2023-02-23T22:33:36.388Z,75.10
2023-02-23T22:36:06.815Z,79.57
2023-02-23T22:38:35.011Z,76.43
2023-02-23T22:41:05.141Z,74.65
2023-02-23T22:43:34.355Z,81.65
2023-02-23T22:46:03.922Z,75.18
2023-02-23T22:48:32.047Z,74.63
2023-02-23T22:51:00.114Z,74.03
2023-02-23T22:53:28.478Z,76.55
2023-02-23T22:55:56.649Z,74.32
2023-02-23T22:58:26.478Z,73.93
2023-02-23T23:01:04.196Z,77.55
2023-02-23T23:03:35.794Z,71.57
2023-02-23T23:06:04.764Z,74.90
2023-02-23T23:08:36.485Z,71.93
2023-02-23T23:11:09.490Z,70.90
2023-02-23T23:13:40.389Z,73.88
2023-02-23T23:16:16.802Z,70.13
2023-02-23T23:18:54.522Z,73.57
2023-02-23T23:21:24.492Z,68.53
2023-02-23T23:23:53.485Z,67.70
2023-02-23T23:26:22.037Z,68.32
2023-02-23T23:28:51.144Z,66.78
2023-02-23T23:31:22.530Z,68.63
2023-02-23T23:33:52.789Z,69.35
2023-02-23T23:36:22.119Z,69.28
2023-02-23T23:38:50.524Z,67.93
2023-02-23T23:41:18.977Z,68.07
2023-02-23T23:43:47.865Z,64.82
2023-02-23T23:46:17.634Z,65.63
2023-02-23T23:48:45.978Z,65.50
2023-02-23T23:51:44.824Z,62.08
2023-02-23T23:54:13.888Z,65.35
2023-02-23T23:56:43.666Z,62.95
2023-02-23T23:59:15.559Z,65.45
